Hadera, Israel
Current Conditions -  °F | °C
As of 12:50 PM on Monday 22 Dec 2014 (Local Time) from LLSD Reporting Station
Scattered Clouds Scattered Clouds  
Wind Chill: 64°   Ceiling: Unl
Heat Index: 64°   Visibility: 6mi
Dew Point: 52°   Wind: 16mph
Humidity: 64%   Direction: 200°SSW
Pressure: 30"   Gusts: NA
Location:  32.45°N, 34.92°E
Report Text: LLSD 221050Z 20014KT 9999 SCT030 18/11 Q1016 RMK SCT065
Loading
Personal Weather Stations






























Interactive Weather Map New forecast layout! Learn more

10-Day Weather Forecast

Advertisements
Track Severe Weather on mobile